sensor_id;sensor_type;location;lat;lon;timestamp;pressure;altitude;pressure_sealevel;temperature;humidity
12897;BME280;6516;35.028;32.372;2023-06-26T00:01:25;99138.75;;;22.55;93.85
12897;BME280;6516;35.028;32.372;2023-06-26T00:03:55;99144.38;;;22.52;93.94
12897;BME280;6516;35.028;32.372;2023-06-26T00:06:23;99141.81;;;22.51;94.69
12897;BME280;6516;35.028;32.372;2023-06-26T00:08:53;99133.28;;;22.46;94.39
12897;BME280;6516;35.028;32.372;2023-06-26T00:11:21;99129.84;;;22.44;94.70
12897;BME280;6516;35.028;32.372;2023-06-26T00:13:49;99137.91;;;22.44;94.64
12897;BME280;6516;35.028;32.372;2023-06-26T00:16:17;99134.38;;;22.54;94.50
12897;BME280;6516;35.028;32.372;2023-06-26T00:18:45;99130.47;;;22.58;94.50
12897;BME280;6516;35.028;32.372;2023-06-26T00:21:13;99128.50;;;22.60;95.16
12897;BME280;6516;35.028;32.372;2023-06-26T00:23:40;99123.34;;;22.68;94.14
12897;BME280;6516;35.028;32.372;2023-06-26T00:26:11;99123.06;;;22.71;93.92
12897;BME280;6516;35.028;32.372;2023-06-26T00:28:39;99132.13;;;22.70;93.45
12897;BME280;6516;35.028;32.372;2023-06-26T00:31:07;99131.28;;;22.70;90.09
12897;BME280;6516;35.028;32.372;2023-06-26T00:33:35;99120.59;;;22.79;88.55
12897;BME280;6516;35.028;32.372;2023-06-26T00:36:02;99123.16;;;22.81;85.52
12897;BME280;6516;35.028;32.372;2023-06-26T00:38:31;99126.78;;;22.91;83.12
12897;BME280;6516;35.028;32.372;2023-06-26T00:40:58;99119.94;;;22.98;82.96
12897;BME280;6516;35.028;32.372;2023-06-26T00:43:27;99121.97;;;23.05;83.46
12897;BME280;6516;35.028;32.372;2023-06-26T00:45:55;99111.88;;;23.18;82.39
12897;BME280;6516;35.028;32.372;2023-06-26T00:48:23;99114.34;;;23.21;83.33
12897;BME280;6516;35.028;32.372;2023-06-26T00:50:51;99112.13;;;23.15;84.84
12897;BME280;6516;35.028;32.372;2023-06-26T00:53:19;99114.34;;;23.10;84.00
12897;BME280;6516;35.028;32.372;2023-06-26T00:55:47;99112.91;;;23.06;82.50
12897;BME280;6516;35.028;32.372;2023-06-26T00:58:15;99107.53;;;23.06;82.08
12897;BME280;6516;35.028;32.372;2023-06-26T01:00:44;99111.22;;;23.05;81.97
12897;BME280;6516;35.028;32.372;2023-06-26T01:03:12;99111.22;;;23.05;83.00
12897;BME280;6516;35.028;32.372;2023-06-26T01:05:42;99112.00;;;22.96;84.61
12897;BME280;6516;35.028;32.372;2023-06-26T01:08:11;99104.94;;;22.95;84.39
12897;BME280;6516;35.028;32.372;2023-06-26T01:10:40;99103.47;;;22.91;84.75
12897;BME280;6516;35.028;32.372;2023-06-26T01:13:07;99102.03;;;22.87;84.58
12897;BME280;6516;35.028;32.372;2023-06-26T01:15:35;99100.22;;;22.88;84.15
12897;BME280;6516;35.028;32.372;2023-06-26T01:18:05;99092.28;;;22.86;82.97
12897;BME280;6516;35.028;32.372;2023-06-26T01:20:36;99098.03;;;22.82;83.69
12897;BME280;6516;35.028;32.372;2023-06-26T01:23:12;99098.75;;;22.84;82.70
12897;BME280;6516;35.028;32.372;2023-06-26T01:25:53;99089.50;;;22.77;82.87
12897;BME280;6516;35.028;32.372;2023-06-26T01:28:32;99097.69;;;22.75;80.96
12897;BME280;6516;35.028;32.372;2023-06-26T01:31:02;99099.41;;;22.76;80.65
12897;BME280;6516;35.028;32.372;2023-06-26T01:33:31;99092.72;;;22.71;80.10
12897;BME280;6516;35.028;32.372;2023-06-26T01:35:59;99095.53;;;22.69;79.37
12897;BME280;6516;35.028;32.372;2023-06-26T01:38:27;99094.81;;;22.67;79.39
12897;BME280;6516;35.028;32.372;2023-06-26T01:40:55;99090.88;;;22.71;77.49
12897;BME280;6516;35.028;32.372;2023-06-26T01:43:27;99087.69;;;22.77;75.55
12897;BME280;6516;35.028;32.372;2023-06-26T01:46:06;99083.16;;;22.78;76.36
12897;BME280;6516;35.028;32.372;2023-06-26T01:48:45;99090.25;;;22.79;73.37
12897;BME280;6516;35.028;32.372;2023-06-26T01:51:24;99090.72;;;22.84;71.05
12897;BME280;6516;35.028;32.372;2023-06-26T01:54:00;99084.59;;;22.82;70.65
12897;BME280;6516;35.028;32.372;2023-06-26T01:56:29;99082.78;;;22.82;69.41
12897;BME280;6516;35.028;32.372;2023-06-26T01:59:00;99088.16;;;22.82;71.22
12897;BME280;6516;35.028;32.372;2023-06-26T02:01:31;99085.72;;;22.79;71.36
12897;BME280;6516;35.028;32.372;2023-06-26T02:03:59;99077.78;;;22.78;69.96
12897;BME280;6516;35.028;32.372;2023-06-26T02:06:27;99077.44;;;22.71;70.37
12897;BME280;6516;35.028;32.372;2023-06-26T02:08:54;99080.94;;;22.62;71.22
12897;BME280;6516;35.028;32.372;2023-06-26T02:11:23;99084.97;;;22.57;72.15
12897;BME280;6516;35.028;32.372;2023-06-26T02:13:50;99079.47;;;22.58;72.45
12897;BME280;6516;35.028;32.372;2023-06-26T02:16:20;99076.34;;;22.53;72.80
12897;BME280;6516;35.028;32.372;2023-06-26T02:18:47;99076.06;;;22.56;72.16
12897;BME280;6516;35.028;32.372;2023-06-26T02:21:15;99067.03;;;22.57;74.97
12897;BME280;6516;35.028;32.372;2023-06-26T02:23:43;99066.56;;;22.52;74.81
12897;BME280;6516;35.028;32.372;2023-06-26T02:26:11;99066.44;;;22.54;75.40
12897;BME280;6516;35.028;32.372;2023-06-26T02:28:38;99064.75;;;22.53;75.22
12897;BME280;6516;35.028;32.372;2023-06-26T02:31:06;99059.75;;;22.48;75.50
12897;BME280;6516;35.028;32.372;2023-06-26T02:33:35;99063.53;;;22.46;74.34
12897;BME280;6516;35.028;32.372;2023-06-26T02:36:04;99062.69;;;22.45;73.83
12897;BME280;6516;35.028;32.372;2023-06-26T02:38:32;99062.41;;;22.48;72.92
12897;BME280;6516;35.028;32.372;2023-06-26T02:40:59;99063.66;;;22.44;71.67
12897;BME280;6516;35.028;32.372;2023-06-26T02:43:27;99060.25;;;22.53;70.33
12897;BME280;6516;35.028;32.372;2023-06-26T02:45:55;99064.50;;;22.56;70.49
12897;BME280;6516;35.028;32.372;2023-06-26T02:48:22;99062.31;;;22.50;70.17
12897;BME280;6516;35.028;32.372;2023-06-26T02:50:52;99067.94;;;22.47;67.95
12897;BME280;6516;35.028;32.372;2023-06-26T02:53:19;99059.25;;;22.54;66.46
12897;BME280;6516;35.028;32.372;2023-06-26T02:55:47;99062.91;;;22.53;65.74
12897;BME280;6516;35.028;32.372;2023-06-26T02:58:15;99062.19;;;22.51;65.19
12897;BME280;6516;35.028;32.372;2023-06-26T03:00:43;99058.03;;;22.58;64.41
12897;BME280;6516;35.028;32.372;2023-06-26T03:03:10;99058.59;;;22.62;63.91
12897;BME280;6516;35.028;32.372;2023-06-26T03:05:38;99064.31;;;22.68;62.77
12897;BME280;6516;35.028;32.372;2023-06-26T03:08:08;99059.78;;;22.69;61.98
12897;BME280;6516;35.028;32.372;2023-06-26T03:10:35;99060.38;;;22.72;61.54
12897;BME280;6516;35.028;32.372;2023-06-26T03:13:03;99062.41;;;22.80;61.70
12897;BME280;6516;35.028;32.372;2023-06-26T03:15:31;99066.56;;;22.84;61.33
12897;BME280;6516;35.028;32.372;2023-06-26T03:17:58;99061.75;;;22.87;59.92
12897;BME280;6516;35.028;32.372;2023-06-26T03:20:26;99061.09;;;22.95;59.61
12897;BME280;6516;35.028;32.372;2023-06-26T03:22:54;99056.25;;;23.09;58.38
12897;BME280;6516;35.028;32.372;2023-06-26T03:25:23;99050.22;;;23.17;57.47
12897;BME280;6516;35.028;32.372;2023-06-26T03:27:51;99052.28;;;23.24;56.14
12897;BME280;6516;35.028;32.372;2023-06-26T03:30:19;99054.47;;;23.40;55.92
12897;BME280;6516;35.028;32.372;2023-06-26T03:32:47;99051.13;;;23.47;54.51
12897;BME280;6516;35.028;32.372;2023-06-26T03:35:14;99052.47;;;23.62;52.11
12897;BME280;6516;35.028;32.372;2023-06-26T03:37:42;99051.69;;;23.81;51.86
12897;BME280;6516;35.028;32.372;2023-06-26T03:40:10;99047.94;;;23.93;52.04
12897;BME280;6516;35.028;32.372;2023-06-26T03:42:39;99048.41;;;24.07;49.88
12897;BME280;6516;35.028;32.372;2023-06-26T03:45:07;99050.09;;;24.18;49.76
12897;BME280;6516;35.028;32.372;2023-06-26T03:47:35;99054.94;;;24.33;49.52
12897;BME280;6516;35.028;32.372;2023-06-26T03:50:03;99050.41;;;24.43;49.89
12897;BME280;6516;35.028;32.372;2023-06-26T03:52:32;99059.94;;;24.57;48.75
12897;BME280;6516;35.028;32.372;2023-06-26T03:55:00;99054.88;;;24.63;48.65
12897;BME280;6516;35.028;32.372;2023-06-26T03:57:28;99054.56;;;24.76;49.21
12897;BME280;6516;35.028;32.372;2023-06-26T03:59:57;99060.66;;;24.87;48.81
12897;BME280;6516;35.028;32.372;2023-06-26T04:02:25;99059.66;;;24.98;48.79
12897;BME280;6516;35.028;32.372;2023-06-26T04:04:53;99056.09;;;25.07;48.91
12897;BME280;6516;35.028;32.372;2023-06-26T04:07:21;99059.34;;;25.20;49.70
12897;BME280;6516;35.028;32.372;2023-06-26T04:09:50;99054.53;;;25.33;50.67
12897;BME280;6516;35.028;32.372;2023-06-26T04:12:18;99053.78;;;25.40;51.69
12897;BME280;6516;35.028;32.372;2023-06-26T04:14:46;99054.59;;;25.50;53.72
12897;BME280;6516;35.028;32.372;2023-06-26T04:17:15;99059.38;;;25.56;54.35
12897;BME280;6516;35.028;32.372;2023-06-26T04:19:43;99067.44;;;25.66;54.55
12897;BME280;6516;35.028;32.372;2023-06-26T04:22:11;99067.16;;;25.69;52.87
12897;BME280;6516;35.028;32.372;2023-06-26T04:24:39;99068.78;;;25.79;54.80
12897;BME280;6516;35.028;32.372;2023-06-26T04:27:06;99061.97;;;25.85;53.65
12897;BME280;6516;35.028;32.372;2023-06-26T04:29:34;99071.06;;;25.93;53.85
12897;BME280;6516;35.028;32.372;2023-06-26T04:32:02;99069.84;;;26.05;53.13
12897;BME280;6516;35.028;32.372;2023-06-26T04:34:32;99065.09;;;26.17;52.86
12897;BME280;6516;35.028;32.372;2023-06-26T04:37:02;99068.69;;;26.52;51.79
12897;BME280;6516;35.028;32.372;2023-06-26T04:39:30;99059.78;;;26.87;51.66
12897;BME280;6516;35.028;32.372;2023-06-26T04:41:58;99070.00;;;27.19;50.01
12897;BME280;6516;35.028;32.372;2023-06-26T04:44:26;99069.50;;;27.41;48.91
12897;BME280;6516;35.028;32.372;2023-06-26T04:46:55;99062.25;;;27.49;47.22
12897;BME280;6516;35.028;32.372;2023-06-26T04:49:23;99067.13;;;27.71;48.31
12897;BME280;6516;35.028;32.372;2023-06-26T04:51:54;99071.81;;;27.87;46.12
12897;BME280;6516;35.028;32.372;2023-06-26T04:54:22;99064.63;;;28.11;45.03
12897;BME280;6516;35.028;32.372;2023-06-26T04:56:50;99065.09;;;28.40;43.33
12897;BME280;6516;35.028;32.372;2023-06-26T04:59:17;99063.81;;;28.84;41.48
12897;BME280;6516;35.028;32.372;2023-06-26T05:01:45;99061.63;;;29.28;41.28
12897;BME280;6516;35.028;32.372;2023-06-26T05:04:14;99066.28;;;29.74;38.92
12897;BME280;6516;35.028;32.372;2023-06-26T05:06:42;99068.25;;;29.96;38.41
12897;BME280;6516;35.028;32.372;2023-06-26T05:09:11;99064.09;;;30.54;36.58
12897;BME280;6516;35.028;32.372;2023-06-26T05:11:39;99070.44;;;30.77;36.69
12897;BME280;6516;35.028;32.372;2023-06-26T05:14:07;99065.56;;;31.10;36.70
12897;BME280;6516;35.028;32.372;2023-06-26T05:16:35;99074.28;;;31.28;36.22
12897;BME280;6516;35.028;32.372;2023-06-26T05:19:03;99071.47;;;31.36;37.01
12897;BME280;6516;35.028;32.372;2023-06-26T05:21:31;99073.41;;;31.64;36.34
12897;BME280;6516;35.028;32.372;2023-06-26T05:24:02;99075.25;;;31.86;36.46
12897;BME280;6516;35.028;32.372;2023-06-26T05:26:33;99070.31;;;32.25;37.18
12897;BME280;6516;35.028;32.372;2023-06-26T05:29:01;99069.59;;;32.31;36.65
12897;BME280;6516;35.028;32.372;2023-06-26T05:31:31;99080.38;;;32.75;36.37
12897;BME280;6516;35.028;32.372;2023-06-26T05:34:03;99075.41;;;32.99;35.68
12897;BME280;6516;35.028;32.372;2023-06-26T05:36:31;99073.75;;;33.26;35.10
12897;BME280;6516;35.028;32.372;2023-06-26T05:39:01;99079.81;;;33.42;35.41
12897;BME280;6516;35.028;32.372;2023-06-26T05:41:30;99084.00;;;33.66;35.41
12897;BME280;6516;35.028;32.372;2023-06-26T05:43:59;99083.69;;;33.82;35.43
12897;BME280;6516;35.028;32.372;2023-06-26T05:46:28;99079.38;;;33.39;35.85
12897;BME280;6516;35.028;32.372;2023-06-26T05:48:55;99075.56;;;33.61;37.69
12897;BME280;6516;35.028;32.372;2023-06-26T05:51:24;99078.75;;;33.92;36.71
12897;BME280;6516;35.028;32.372;2023-06-26T05:53:52;99077.56;;;34.08;38.14
12897;BME280;6516;35.028;32.372;2023-06-26T05:56:21;99083.53;;;34.24;38.83
12897;BME280;6516;35.028;32.372;2023-06-26T05:58:51;99085.22;;;34.25;39.43
12897;BME280;6516;35.028;32.372;2023-06-26T06:01:20;99083.03;;;34.08;39.63
12897;BME280;6516;35.028;32.372;2023-06-26T06:03:47;99084.31;;;34.18;39.70
12897;BME280;6516;35.028;32.372;2023-06-26T06:06:15;99081.88;;;34.30;39.19
12897;BME280;6516;35.028;32.372;2023-06-26T06:08:43;99086.47;;;34.23;40.21
12897;BME280;6516;35.028;32.372;2023-06-26T06:11:11;99077.97;;;33.77;40.10
12897;BME280;6516;35.028;32.372;2023-06-26T06:13:38;99083.19;;;33.44;40.80
12897;BME280;6516;35.028;32.372;2023-06-26T06:16:08;99074.94;;;32.96;40.69
12897;BME280;6516;35.028;32.372;2023-06-26T06:18:35;99084.56;;;32.56;42.55
12897;BME280;6516;35.028;32.372;2023-06-26T06:21:03;99086.66;;;32.54;42.77
12897;BME280;6516;35.028;32.372;2023-06-26T06:23:31;99087.78;;;32.45;42.82
12897;BME280;6516;35.028;32.372;2023-06-26T06:25:58;99082.97;;;32.47;42.60
12897;BME280;6516;35.028;32.372;2023-06-26T06:28:26;99090.34;;;32.18;43.77
12897;BME280;6516;35.028;32.372;2023-06-26T06:30:54;99082.34;;;32.45;43.07
12897;BME280;6516;35.028;32.372;2023-06-26T06:33:23;99089.59;;;32.24;42.60
12897;BME280;6516;35.028;32.372;2023-06-26T06:35:51;99087.38;;;32.27;42.60
12897;BME280;6516;35.028;32.372;2023-06-26T06:38:18;99087.69;;;32.53;43.55
12897;BME280;6516;35.028;32.372;2023-06-26T06:40:46;99079.81;;;32.44;43.05
12897;BME280;6516;35.028;32.372;2023-06-26T06:43:14;99085.78;;;32.54;43.60
12897;BME280;6516;35.028;32.372;2023-06-26T06:45:42;99083.47;;;32.72;41.15
12897;BME280;6516;35.028;32.372;2023-06-26T06:48:10;99077.16;;;32.50;42.49
12897;BME280;6516;35.028;32.372;2023-06-26T06:50:39;99076.72;;;32.68;42.77
12897;BME280;6516;35.028;32.372;2023-06-26T06:53:11;99066.63;;;33.04;42.80
12897;BME280;6516;35.028;32.372;2023-06-26T06:55:39;99068.78;;;33.08;41.64
12897;BME280;6516;35.028;32.372;2023-06-26T06:58:07;99068.06;;;33.00;42.70
12897;BME280;6516;35.028;32.372;2023-06-26T07:00:35;99076.25;;;33.00;42.92
12897;BME280;6516;35.028;32.372;2023-06-26T07:03:02;99074.69;;;33.12;42.21
12897;BME280;6516;35.028;32.372;2023-06-26T07:05:30;99079.28;;;33.11;43.12
12897;BME280;6516;35.028;32.372;2023-06-26T07:07:59;99077.81;;;33.30;43.07
12897;BME280;6516;35.028;32.372;2023-06-26T07:10:27;99073.91;;;33.18;43.28
12897;BME280;6516;35.028;32.372;2023-06-26T07:12:55;99081.06;;;33.19;42.72
12897;BME280;6516;35.028;32.372;2023-06-26T07:15:23;99078.97;;;33.42;42.36
12897;BME280;6516;35.028;32.372;2023-06-26T07:17:51;99066.63;;;33.25;42.12
12897;BME280;6516;35.028;32.372;2023-06-26T07:20:18;99071.03;;;33.26;43.28
12897;BME280;6516;35.028;32.372;2023-06-26T07:22:46;99072.09;;;33.25;43.00
12897;BME280;6516;35.028;32.372;2023-06-26T07:25:15;99070.31;;;33.38;42.31
12897;BME280;6516;35.028;32.372;2023-06-26T07:27:43;99072.16;;;33.59;41.01
12897;BME280;6516;35.028;32.372;2023-06-26T07:30:11;99073.44;;;33.63;42.19
12897;BME280;6516;35.028;32.372;2023-06-26T07:32:39;99072.22;;;33.65;42.68
12897;BME280;6516;35.028;32.372;2023-06-26T07:35:08;99064.97;;;33.79;41.20
12897;BME280;6516;35.028;32.372;2023-06-26T07:37:35;99072.25;;;33.72;40.30
12897;BME280;6516;35.028;32.372;2023-06-26T07:40:04;99067.41;;;34.02;40.77
12897;BME280;6516;35.028;32.372;2023-06-26T07:42:34;99065.78;;;34.07;41.15
12897;BME280;6516;35.028;32.372;2023-06-26T07:45:02;99062.00;;;34.08;40.67
12897;BME280;6516;35.028;32.372;2023-06-26T07:47:35;99059.31;;;34.21;39.90
12897;BME280;6516;35.028;32.372;2023-06-26T07:50:04;99066.03;;;34.53;39.85
12897;BME280;6516;35.028;32.372;2023-06-26T07:52:32;99062.09;;;34.81;39.39
12897;BME280;6516;35.028;32.372;2023-06-26T07:55:00;99061.47;;;34.79;39.27
12897;BME280;6516;35.028;32.372;2023-06-26T07:57:29;99067.13;;;34.78;39.54
12897;BME280;6516;35.028;32.372;2023-06-26T07:59:59;99063.81;;;34.82;38.78
12897;BME280;6516;35.028;32.372;2023-06-26T08:02:27;99061.66;;;34.78;38.23
12897;BME280;6516;35.028;32.372;2023-06-26T08:04:54;99068.25;;;34.90;40.46
12897;BME280;6516;35.028;32.372;2023-06-26T08:07:22;99067.78;;;34.86;39.77
12897;BME280;6516;35.028;32.372;2023-06-26T08:09:52;99064.25;;;34.92;40.01
12897;BME280;6516;35.028;32.372;2023-06-26T08:12:20;99075.81;;;34.94;38.97
12897;BME280;6516;35.028;32.372;2023-06-26T08:14:47;99071.38;;;34.87;41.18
12897;BME280;6516;35.028;32.372;2023-06-26T08:17:17;99070.03;;;34.70;40.61
12897;BME280;6516;35.028;32.372;2023-06-26T08:19:44;99068.75;;;34.53;40.98
12897;BME280;6516;35.028;32.372;2023-06-26T08:22:12;99067.06;;;34.58;42.06
12897;BME280;6516;35.028;32.372;2023-06-26T08:24:40;99072.41;;;34.26;40.40
12897;BME280;6516;35.028;32.372;2023-06-26T08:27:08;99081.50;;;34.33;41.00
12897;BME280;6516;35.028;32.372;2023-06-26T08:29:36;99083.19;;;34.40;41.00
12897;BME280;6516;35.028;32.372;2023-06-26T08:32:04;99083.19;;;34.40;42.37
12897;BME280;6516;35.028;32.372;2023-06-26T08:34:34;99082.31;;;34.80;41.34
12897;BME280;6516;35.028;32.372;2023-06-26T08:37:01;99078.91;;;34.72;40.60
12897;BME280;6516;35.028;32.372;2023-06-26T08:39:29;99077.38;;;34.56;40.11
12897;BME280;6516;35.028;32.372;2023-06-26T08:41:57;99074.06;;;34.74;38.29
12897;BME280;6516;35.028;32.372;2023-06-26T08:44:30;99081.44;;;34.73;38.15
12897;BME280;6516;35.028;32.372;2023-06-26T08:46:59;99081.69;;;34.98;37.92
12897;BME280;6516;35.028;32.372;2023-06-26T08:49:33;99064.88;;;35.01;38.68
12897;BME280;6516;35.028;32.372;2023-06-26T08:52:11;99085.38;;;34.51;37.42
12897;BME280;6516;35.028;32.372;2023-06-26T08:54:46;99084.22;;;34.33;40.27
12897;BME280;6516;35.028;32.372;2023-06-26T08:57:21;99088.84;;;33.98;41.20
12897;BME280;6516;35.028;32.372;2023-06-26T08:59:50;99079.22;;;34.02;42.44
12897;BME280;6516;35.028;32.372;2023-06-26T09:02:19;99071.59;;;33.98;42.59
12897;BME280;6516;35.028;32.372;2023-06-26T09:04:50;99079.75;;;34.25;41.59
12897;BME280;6516;35.028;32.372;2023-06-26T09:07:17;99077.31;;;34.37;40.48
12897;BME280;6516;35.028;32.372;2023-06-26T09:09:45;99083.09;;;34.27;40.97
12897;BME280;6516;35.028;32.372;2023-06-26T09:12:13;99080.03;;;33.96;41.85
12897;BME280;6516;35.028;32.372;2023-06-26T09:14:41;99073.34;;;33.78;41.47
12897;BME280;6516;35.028;32.372;2023-06-26T09:17:09;99083.19;;;33.72;39.36
12897;BME280;6516;35.028;32.372;2023-06-26T09:19:37;99079.41;;;33.73;41.30
12897;BME280;6516;35.028;32.372;2023-06-26T09:22:11;99072.44;;;33.64;41.48
12897;BME280;6516;35.028;32.372;2023-06-26T09:24:41;99085.19;;;33.57;41.73
12897;BME280;6516;35.028;32.372;2023-06-26T09:27:09;99086.72;;;33.17;43.53
12897;BME280;6516;35.028;32.372;2023-06-26T09:29:37;99073.22;;;33.30;42.74
12897;BME280;6516;35.028;32.372;2023-06-26T09:32:07;99072.25;;;33.72;43.69
12897;BME280;6516;35.028;32.372;2023-06-26T09:34:36;99072.25;;;34.00;42.53
12897;BME280;6516;35.028;32.372;2023-06-26T09:37:04;99077.44;;;33.88;41.07
12897;BME280;6516;35.028;32.372;2023-06-26T09:39:34;99087.81;;;34.33;42.17
12897;BME280;6516;35.028;32.372;2023-06-26T09:42:02;99084.78;;;34.22;43.06
12897;BME280;6516;35.028;32.372;2023-06-26T09:44:31;99074.78;;;34.42;42.91
12897;BME280;6516;35.028;32.372;2023-06-26T09:47:01;99084.25;;;33.99;42.40
12897;BME280;6516;35.028;32.372;2023-06-26T09:49:29;99081.63;;;34.25;41.53
12897;BME280;6516;35.028;32.372;2023-06-26T09:52:00;99079.53;;;34.27;41.05
12897;BME280;6516;35.028;32.372;2023-06-26T09:54:30;99088.88;;;34.32;41.83
12897;BME280;6516;35.028;32.372;2023-06-26T09:57:07;99086.75;;;34.34;40.82
12897;BME280;6516;35.028;32.372;2023-06-26T09:59:35;99094.91;;;34.28;41.87
12897;BME280;6516;35.028;32.372;2023-06-26T10:02:04;99082.03;;;34.22;41.67
12897;BME280;6516;35.028;32.372;2023-06-26T10:04:32;99081.72;;;33.97;39.75
12897;BME280;6516;35.028;32.372;2023-06-26T10:07:01;99086.09;;;33.64;40.19
12897;BME280;6516;35.028;32.372;2023-06-26T10:09:36;99083.63;;;33.48;42.06
12897;BME280;6516;35.028;32.372;2023-06-26T10:12:12;99089.06;;;33.69;41.40
12897;BME280;6516;35.028;32.372;2023-06-26T10:14:46;99084.59;;;33.89;40.75
12897;BME280;6516;35.028;32.372;2023-06-26T10:17:16;99081.47;;;33.92;41.68
12897;BME280;6516;35.028;32.372;2023-06-26T10:19:48;99082.88;;;33.82;42.59
12897;BME280;6516;35.028;32.372;2023-06-26T10:22:17;99087.09;;;33.84;43.20
12897;BME280;6516;35.028;32.372;2023-06-26T10:24:49;99078.75;;;33.71;43.97
12897;BME280;6516;35.028;32.372;2023-06-26T10:27:19;99082.25;;;33.58;43.93
12897;BME280;6516;35.028;32.372;2023-06-26T10:29:50;99085.53;;;34.03;42.42
12897;BME280;6516;35.028;32.372;2023-06-26T10:32:21;99079.28;;;33.81;44.71
12897;BME280;6516;35.028;32.372;2023-06-26T10:34:53;99087.66;;;33.52;45.15
12897;BME280;6516;35.028;32.372;2023-06-26T10:37:40;99091.19;;;33.46;46.54
12897;BME280;6516;35.028;32.372;2023-06-26T10:40:10;99081.19;;;33.32;47.62
12897;BME280;6516;35.028;32.372;2023-06-26T10:42:39;99082.81;;;33.26;46.80
12897;BME280;6516;35.028;32.372;2023-06-26T10:45:13;99086.03;;;33.15;48.60
12897;BME280;6516;35.028;32.372;2023-06-26T10:47:44;99081.25;;;33.38;47.61
12897;BME280;6516;35.028;32.372;2023-06-26T10:50:18;99076.69;;;33.24;48.93
12897;BME280;6516;35.028;32.372;2023-06-26T10:53:09;99089.47;;;33.45;47.56
12897;BME280;6516;35.028;32.372;2023-06-26T10:55:48;99077.09;;;33.70;47.42
12897;BME280;6516;35.028;32.372;2023-06-26T10:58:27;99076.63;;;33.39;48.05
12897;BME280;6516;35.028;32.372;2023-06-26T11:01:17;99084.03;;;33.72;46.07
12897;BME280;6516;35.028;32.372;2023-06-26T11:03:47;99082.16;;;33.45;47.39
12897;BME280;6516;35.028;32.372;2023-06-26T11:06:19;99075.78;;;33.38;48.02
12897;BME280;6516;35.028;32.372;2023-06-26T11:08:48;99081.72;;;33.42;46.84
12897;BME280;6516;35.028;32.372;2023-06-26T11:11:20;99079.63;;;33.44;47.15
12897;BME280;6516;35.028;32.372;2023-06-26T11:13:48;99072.41;;;33.36;47.36
12897;BME280;6516;35.028;32.372;2023-06-26T11:16:16;99083.19;;;33.23;47.38
12897;BME280;6516;35.028;32.372;2023-06-26T11:18:45;99075.59;;;33.19;46.64
12897;BME280;6516;35.028;32.372;2023-06-26T11:21:12;99078.34;;;33.19;46.22
12897;BME280;6516;35.028;32.372;2023-06-26T11:23:41;99076.84;;;33.37;44.75
12897;BME280;6516;35.028;32.372;2023-06-26T11:26:16;99071.97;;;33.33;46.58
12897;BME280;6516;35.028;32.372;2023-06-26T11:28:50;99066.25;;;33.07;47.49
12897;BME280;6516;35.028;32.372;2023-06-26T11:31:24;99071.63;;;33.42;46.88
12897;BME280;6516;35.028;32.372;2023-06-26T11:33:53;99064.25;;;33.64;46.62
12897;BME280;6516;35.028;32.372;2023-06-26T11:36:23;99070.78;;;33.21;47.50
12897;BME280;6516;35.028;32.372;2023-06-26T11:38:55;99069.09;;;32.99;48.29
12897;BME280;6516;35.028;32.372;2023-06-26T11:41:25;99069.34;;;33.04;48.55
12897;BME280;6516;35.028;32.372;2023-06-26T11:43:55;99074.16;;;32.81;47.06
12897;BME280;6516;35.028;32.372;2023-06-26T11:46:27;99065.81;;;32.68;47.41
12897;BME280;6516;35.028;32.372;2023-06-26T11:48:55;99065.44;;;32.71;48.25
12897;BME280;6516;35.028;32.372;2023-06-26T11:51:23;99065.41;;;32.50;48.20
12897;BME280;6516;35.028;32.372;2023-06-26T11:53:51;99072.22;;;32.60;48.04
12897;BME280;6516;35.028;32.372;2023-06-26T11:56:19;99069.75;;;32.44;48.29
12897;BME280;6516;35.028;32.372;2023-06-26T11:58:59;99073.88;;;32.76;48.84
12897;BME280;6516;35.028;32.372;2023-06-26T12:01:32;99071.72;;;32.50;47.02
12897;BME280;6516;35.028;32.372;2023-06-26T12:04:02;99072.41;;;32.59;47.10
12897;BME280;6516;35.028;32.372;2023-06-26T12:06:34;99081.50;;;32.45;48.60
12897;BME280;6516;35.028;32.372;2023-06-26T12:09:04;99076.63;;;32.40;48.46
12897;BME280;6516;35.028;32.372;2023-06-26T12:11:34;99071.19;;;32.61;48.27
12897;BME280;6516;35.028;32.372;2023-06-26T12:14:05;99075.09;;;32.73;46.18
12897;BME280;6516;35.028;32.372;2023-06-26T12:16:34;99065.06;;;32.95;46.07
12897;BME280;6516;35.028;32.372;2023-06-26T12:19:04;99076.97;;;32.87;46.69
12897;BME280;6516;35.028;32.372;2023-06-26T12:21:45;99076.91;;;32.81;47.41
12897;BME280;6516;35.028;32.372;2023-06-26T12:24:19;99081.31;;;32.82;46.22
12897;BME280;6516;35.028;32.372;2023-06-26T12:26:51;99073.13;;;32.82;47.29
12897;BME280;6516;35.028;32.372;2023-06-26T12:29:29;99064.56;;;32.85;48.11
12897;BME280;6516;35.028;32.372;2023-06-26T12:31:59;99062.06;;;32.69;46.70
12897;BME280;6516;35.028;32.372;2023-06-26T12:34:29;99064.66;;;32.56;47.16
12897;BME280;6516;35.028;32.372;2023-06-26T12:37:00;99075.03;;;32.81;45.93
12897;BME280;6516;35.028;32.372;2023-06-26T12:39:45;99058.56;;;32.96;45.70
12897;BME280;6516;35.028;32.372;2023-06-26T12:42:14;99070.88;;;32.71;44.70
12897;BME280;6516;35.028;32.372;2023-06-26T12:44:44;99067.03;;;32.65;47.95
12897;BME280;6516;35.028;32.372;2023-06-26T12:47:15;99069.47;;;32.25;48.09
12897;BME280;6516;35.028;32.372;2023-06-26T12:49:45;99062.19;;;32.61;46.05
12897;BME280;6516;35.028;32.372;2023-06-26T12:52:14;99052.59;;;32.86;45.69
12897;BME280;6516;35.028;32.372;2023-06-26T12:54:43;99065.06;;;32.74;45.98
12897;BME280;6516;35.028;32.372;2023-06-26T12:57:12;99058.97;;;32.93;45.88
12897;BME280;6516;35.028;32.372;2023-06-26T12:59:41;99058.97;;;32.93;44.55
12897;BME280;6516;35.028;32.372;2023-06-26T13:02:10;99060.91;;;32.78;43.72
12897;BME280;6516;35.028;32.372;2023-06-26T13:04:38;99050.94;;;32.85;46.05
12897;BME280;6516;35.028;32.372;2023-06-26T13:07:06;99052.63;;;32.50;46.76
12897;BME280;6516;35.028;32.372;2023-06-26T13:09:35;99049.38;;;32.61;47.40
12897;BME280;6516;35.028;32.372;2023-06-26T13:12:05;99051.34;;;32.32;47.10